This London Heathrow Airport weather forecast is generated by the Met Office Weather Widget

AirNav RadarBox - Metar Weather
  London Heathrow Metar Weather
 

METAR = EGLL 291150Z 25015KT 9999 FEW027 SCT029 06/01 Q0984 NOSIG

STATION........ EGLL
OBSERVED....... Thu Jan 29, 11:50 UTC
NOW............ Thu Jan 29, 12:17 UTC
AGE............ 27 min ago
WIND........... WSW at 17 mph
VISIBILITY..... 16 miles
CLOUDS......... scattered clouds
TEMP........... 43°F (6°C)
WIND CHILL..... 35°F (2°C)
DEWPT.......... 34°F (1°C)
HUMIDITY....... 71%
BAROMETER...... 984 hPa (29.06 in Hg)

Thu Jan 29 2015, sunrise time : 07:48
Thu Jan 29 2015, sunset time : 16:41